sensor_id;sensor_type;location;lat;lon;timestamp;temperature;humidity
18753;DHT22;9505;50.882;5.350;2022-07-23T00:00:33;16.20;99.90
18753;DHT22;9505;50.882;5.350;2022-07-23T00:02:59;16.20;99.90
18753;DHT22;9505;50.882;5.350;2022-07-23T00:05:25;16.10;99.90
18753;DHT22;9505;50.882;5.350;2022-07-23T00:07:51;16.10;99.90
18753;DHT22;9505;50.882;5.350;2022-07-23T00:10:17;16.00;99.90
18753;DHT22;9505;50.882;5.350;2022-07-23T00:12:43;16.00;99.90
18753;DHT22;9505;50.882;5.350;2022-07-23T00:15:09;15.90;99.90
18753;DHT22;9505;50.882;5.350;2022-07-23T00:17:34;15.90;99.90
18753;DHT22;9505;50.882;5.350;2022-07-23T00:20:00;15.90;99.90
18753;DHT22;9505;50.882;5.350;2022-07-23T00:22:26;15.90;99.90
18753;DHT22;9505;50.882;5.350;2022-07-23T00:24:53;15.90;99.90
18753;DHT22;9505;50.882;5.350;2022-07-23T00:27:18;15.90;99.90
18753;DHT22;9505;50.882;5.350;2022-07-23T00:29:44;15.90;99.90
18753;DHT22;9505;50.882;5.350;2022-07-23T00:32:10;15.80;99.90
18753;DHT22;9505;50.882;5.350;2022-07-23T00:34:35;15.80;99.90
18753;DHT22;9505;50.882;5.350;2022-07-23T00:37:01;15.80;99.90
18753;DHT22;9505;50.882;5.350;2022-07-23T00:39:27;15.80;99.90
18753;DHT22;9505;50.882;5.350;2022-07-23T00:41:52;15.70;99.90
18753;DHT22;9505;50.882;5.350;2022-07-23T00:44:24;15.70;99.90
18753;DHT22;9505;50.882;5.350;2022-07-23T00:46:52;15.60;99.90
18753;DHT22;9505;50.882;5.350;2022-07-23T00:49:24;15.60;99.90
18753;DHT22;9505;50.882;5.350;2022-07-23T00:51:50;15.60;99.90
18753;DHT22;9505;50.882;5.350;2022-07-23T00:54:18;15.50;99.90
18753;DHT22;9505;50.882;5.350;2022-07-23T00:56:45;15.50;99.90
18753;DHT22;9505;50.882;5.350;2022-07-23T00:59:12;15.60;99.90
18753;DHT22;9505;50.882;5.350;2022-07-23T01:01:38;15.50;99.90
18753;DHT22;9505;50.882;5.350;2022-07-23T01:04:04;15.40;99.90
18753;DHT22;9505;50.882;5.350;2022-07-23T01:06:34;15.40;99.90
18753;DHT22;9505;50.882;5.350;2022-07-23T01:09:00;15.40;99.90
18753;DHT22;9505;50.882;5.350;2022-07-23T01:11:26;15.40;99.90
18753;DHT22;9505;50.882;5.350;2022-07-23T01:13:52;15.40;99.90
18753;DHT22;9505;50.882;5.350;2022-07-23T01:16:17;15.30;99.90
18753;DHT22;9505;50.882;5.350;2022-07-23T01:18:43;15.40;99.90
18753;DHT22;9505;50.882;5.350;2022-07-23T01:21:12;15.30;99.90
18753;DHT22;9505;50.882;5.350;2022-07-23T01:23:41;15.30;99.90
18753;DHT22;9505;50.882;5.350;2022-07-23T01:26:06;15.30;99.90
18753;DHT22;9505;50.882;5.350;2022-07-23T01:28:32;15.30;99.90
18753;DHT22;9505;50.882;5.350;2022-07-23T01:30:58;15.30;99.90
18753;DHT22;9505;50.882;5.350;2022-07-23T01:33:23;15.30;99.90
18753;DHT22;9505;50.882;5.350;2022-07-23T01:35:49;15.20;99.90
18753;DHT22;9505;50.882;5.350;2022-07-23T01:38:15;15.20;99.90
18753;DHT22;9505;50.882;5.350;2022-07-23T01:40:41;15.20;99.90
18753;DHT22;9505;50.882;5.350;2022-07-23T01:43:07;15.10;99.90
18753;DHT22;9505;50.882;5.350;2022-07-23T01:45:32;15.10;99.90
18753;DHT22;9505;50.882;5.350;2022-07-23T01:47:58;15.00;99.90
18753;DHT22;9505;50.882;5.350;2022-07-23T01:50:24;15.00;99.90
18753;DHT22;9505;50.882;5.350;2022-07-23T01:52:49;15.00;99.90
18753;DHT22;9505;50.882;5.350;2022-07-23T01:55:15;14.90;99.90
18753;DHT22;9505;50.882;5.350;2022-07-23T01:57:40;14.90;99.90
18753;DHT22;9505;50.882;5.350;2022-07-23T02:00:07;14.90;99.90
18753;DHT22;9505;50.882;5.350;2022-07-23T02:02:32;14.90;99.90
18753;DHT22;9505;50.882;5.350;2022-07-23T02:04:58;14.90;99.90
18753;DHT22;9505;50.882;5.350;2022-07-23T02:07:24;14.80;99.90
18753;DHT22;9505;50.882;5.350;2022-07-23T02:09:49;14.80;99.90
18753;DHT22;9505;50.882;5.350;2022-07-23T02:12:15;14.70;99.90
18753;DHT22;9505;50.882;5.350;2022-07-23T02:14:41;14.70;99.90
18753;DHT22;9505;50.882;5.350;2022-07-23T02:17:06;14.60;99.90
18753;DHT22;9505;50.882;5.350;2022-07-23T02:19:32;14.60;99.90
18753;DHT22;9505;50.882;5.350;2022-07-23T02:21:57;14.60;99.90
18753;DHT22;9505;50.882;5.350;2022-07-23T02:24:23;14.60;99.90
18753;DHT22;9505;50.882;5.350;2022-07-23T02:26:49;14.60;99.90
18753;DHT22;9505;50.882;5.350;2022-07-23T02:29:14;14.70;99.90
18753;DHT22;9505;50.882;5.350;2022-07-23T02:31:40;14.70;99.90
18753;DHT22;9505;50.882;5.350;2022-07-23T02:34:06;14.70;99.90
18753;DHT22;9505;50.882;5.350;2022-07-23T02:36:32;14.70;99.90
18753;DHT22;9505;50.882;5.350;2022-07-23T02:38:58;14.60;99.90
18753;DHT22;9505;50.882;5.350;2022-07-23T02:41:24;14.60;99.90
18753;DHT22;9505;50.882;5.350;2022-07-23T02:43:50;14.60;99.90
18753;DHT22;9505;50.882;5.350;2022-07-23T02:46:15;14.60;99.90
18753;DHT22;9505;50.882;5.350;2022-07-23T02:48:41;14.60;99.90
18753;DHT22;9505;50.882;5.350;2022-07-23T02:51:07;14.50;99.90
18753;DHT22;9505;50.882;5.350;2022-07-23T02:53:33;14.40;99.90
18753;DHT22;9505;50.882;5.350;2022-07-23T02:55:58;14.40;99.90
18753;DHT22;9505;50.882;5.350;2022-07-23T02:58:24;14.40;99.90
18753;DHT22;9505;50.882;5.350;2022-07-23T03:00:52;14.40;99.90
18753;DHT22;9505;50.882;5.350;2022-07-23T03:03:18;14.30;99.90
18753;DHT22;9505;50.882;5.350;2022-07-23T03:05:43;14.30;99.90
18753;DHT22;9505;50.882;5.350;2022-07-23T03:08:09;14.30;99.90
18753;DHT22;9505;50.882;5.350;2022-07-23T03:10:35;14.40;99.90
18753;DHT22;9505;50.882;5.350;2022-07-23T03:13:00;14.40;99.90
18753;DHT22;9505;50.882;5.350;2022-07-23T03:15:26;14.40;99.90
18753;DHT22;9505;50.882;5.350;2022-07-23T03:17:51;14.30;99.90
18753;DHT22;9505;50.882;5.350;2022-07-23T03:20:17;14.30;99.90
18753;DHT22;9505;50.882;5.350;2022-07-23T03:22:43;14.30;99.90
18753;DHT22;9505;50.882;5.350;2022-07-23T03:25:09;14.20;99.90
18753;DHT22;9505;50.882;5.350;2022-07-23T03:27:34;14.10;99.90
18753;DHT22;9505;50.882;5.350;2022-07-23T03:30:00;14.10;99.90
18753;DHT22;9505;50.882;5.350;2022-07-23T03:32:26;14.00;99.90
18753;DHT22;9505;50.882;5.350;2022-07-23T03:34:52;14.00;99.90
18753;DHT22;9505;50.882;5.350;2022-07-23T03:37:19;14.00;99.90
18753;DHT22;9505;50.882;5.350;2022-07-23T03:39:45;14.00;99.90
18753;DHT22;9505;50.882;5.350;2022-07-23T03:42:11;14.00;99.90
18753;DHT22;9505;50.882;5.350;2022-07-23T03:44:36;14.00;99.90
18753;DHT22;9505;50.882;5.350;2022-07-23T03:47:04;14.00;99.90
18753;DHT22;9505;50.882;5.350;2022-07-23T03:49:30;14.00;99.90
18753;DHT22;9505;50.882;5.350;2022-07-23T03:51:56;14.00;99.90
18753;DHT22;9505;50.882;5.350;2022-07-23T03:54:21;14.00;99.90
18753;DHT22;9505;50.882;5.350;2022-07-23T03:56:47;14.00;99.90
18753;DHT22;9505;50.882;5.350;2022-07-23T03:59:13;14.00;99.90
18753;DHT22;9505;50.882;5.350;2022-07-23T04:01:38;14.00;99.90
18753;DHT22;9505;50.882;5.350;2022-07-23T04:04:04;14.00;99.90
18753;DHT22;9505;50.882;5.350;2022-07-23T04:06:30;13.90;99.90
18753;DHT22;9505;50.882;5.350;2022-07-23T04:08:55;13.90;99.90
18753;DHT22;9505;50.882;5.350;2022-07-23T04:11:21;13.90;99.90
18753;DHT22;9505;50.882;5.350;2022-07-23T04:13:47;13.90;99.90
18753;DHT22;9505;50.882;5.350;2022-07-23T04:16:12;13.90;99.90
18753;DHT22;9505;50.882;5.350;2022-07-23T04:18:38;14.00;99.90
18753;DHT22;9505;50.882;5.350;2022-07-23T04:21:04;14.00;99.90
18753;DHT22;9505;50.882;5.350;2022-07-23T04:23:29;14.00;99.90
18753;DHT22;9505;50.882;5.350;2022-07-23T04:25:55;14.10;99.90
18753;DHT22;9505;50.882;5.350;2022-07-23T04:28:21;14.20;99.90
18753;DHT22;9505;50.882;5.350;2022-07-23T04:30:46;14.20;99.90
18753;DHT22;9505;50.882;5.350;2022-07-23T04:33:12;14.20;99.90
18753;DHT22;9505;50.882;5.350;2022-07-23T04:35:37;14.30;99.90
18753;DHT22;9505;50.882;5.350;2022-07-23T04:38:03;14.30;99.90
18753;DHT22;9505;50.882;5.350;2022-07-23T04:40:29;14.40;99.90
18753;DHT22;9505;50.882;5.350;2022-07-23T04:42:57;14.40;99.90
18753;DHT22;9505;50.882;5.350;2022-07-23T04:45:22;14.50;99.90
18753;DHT22;9505;50.882;5.350;2022-07-23T04:47:51;14.60;99.90
18753;DHT22;9505;50.882;5.350;2022-07-23T04:50:17;14.60;99.90
18753;DHT22;9505;50.882;5.350;2022-07-23T04:52:47;14.60;99.90
18753;DHT22;9505;50.882;5.350;2022-07-23T04:55:12;14.70;99.90
18753;DHT22;9505;50.882;5.350;2022-07-23T04:57:38;14.80;99.90
18753;DHT22;9505;50.882;5.350;2022-07-23T05:00:05;14.80;99.90
18753;DHT22;9505;50.882;5.350;2022-07-23T05:02:31;14.90;99.90
18753;DHT22;9505;50.882;5.350;2022-07-23T05:04:56;14.90;99.90
18753;DHT22;9505;50.882;5.350;2022-07-23T05:07:22;14.90;99.90
18753;DHT22;9505;50.882;5.350;2022-07-23T05:09:48;15.00;99.90
18753;DHT22;9505;50.882;5.350;2022-07-23T05:12:13;15.10;99.90
18753;DHT22;9505;50.882;5.350;2022-07-23T05:14:39;15.10;99.90
18753;DHT22;9505;50.882;5.350;2022-07-23T05:17:04;15.20;99.90
18753;DHT22;9505;50.882;5.350;2022-07-23T05:19:30;15.30;99.90
18753;DHT22;9505;50.882;5.350;2022-07-23T05:21:56;15.40;99.90
18753;DHT22;9505;50.882;5.350;2022-07-23T05:24:21;15.50;99.90
18753;DHT22;9505;50.882;5.350;2022-07-23T05:26:47;15.70;99.90
18753;DHT22;9505;50.882;5.350;2022-07-23T05:29:13;15.80;99.90
18753;DHT22;9505;50.882;5.350;2022-07-23T05:31:38;16.10;99.90
18753;DHT22;9505;50.882;5.350;2022-07-23T05:34:04;16.20;99.90
18753;DHT22;9505;50.882;5.350;2022-07-23T05:36:31;16.50;99.90
18753;DHT22;9505;50.882;5.350;2022-07-23T05:38:57;16.70;99.90
18753;DHT22;9505;50.882;5.350;2022-07-23T05:41:22;17.10;99.90
18753;DHT22;9505;50.882;5.350;2022-07-23T05:43:48;18.30;99.90
18753;DHT22;9505;50.882;5.350;2022-07-23T05:46:14;20.30;99.90
18753;DHT22;9505;50.882;5.350;2022-07-23T05:48:39;22.20;99.90
18753;DHT22;9505;50.882;5.350;2022-07-23T05:51:05;23.80;99.90
18753;DHT22;9505;50.882;5.350;2022-07-23T05:53:32;25.00;99.90
18753;DHT22;9505;50.882;5.350;2022-07-23T05:55:59;25.90;99.90
18753;DHT22;9505;50.882;5.350;2022-07-23T05:58:24;26.70;99.90
18753;DHT22;9505;50.882;5.350;2022-07-23T06:00:50;27.60;99.90
18753;DHT22;9505;50.882;5.350;2022-07-23T06:03:16;27.80;99.90
18753;DHT22;9505;50.882;5.350;2022-07-23T06:05:41;27.70;99.90
18753;DHT22;9505;50.882;5.350;2022-07-23T06:08:07;28.30;99.90
18753;DHT22;9505;50.882;5.350;2022-07-23T06:10:33;28.90;99.90
18753;DHT22;9505;50.882;5.350;2022-07-23T06:12:58;29.40;99.90
18753;DHT22;9505;50.882;5.350;2022-07-23T06:15:24;29.90;99.90
18753;DHT22;9505;50.882;5.350;2022-07-23T06:17:50;30.30;99.90
18753;DHT22;9505;50.882;5.350;2022-07-23T06:20:15;30.70;99.90
18753;DHT22;9505;50.882;5.350;2022-07-23T06:22:41;30.80;99.90
18753;DHT22;9505;50.882;5.350;2022-07-23T06:25:07;30.90;99.10
18753;DHT22;9505;50.882;5.350;2022-07-23T06:27:33;30.30;98.80
18753;DHT22;9505;50.882;5.350;2022-07-23T06:29:58;30.10;99.90
18753;DHT22;9505;50.882;5.350;2022-07-23T06:32:24;30.60;99.90
18753;DHT22;9505;50.882;5.350;2022-07-23T06:34:50;30.70;98.80
18753;DHT22;9505;50.882;5.350;2022-07-23T06:37:15;31.30;97.70
18753;DHT22;9505;50.882;5.350;2022-07-23T06:39:41;31.50;98.40
18753;DHT22;9505;50.882;5.350;2022-07-23T06:42:07;32.20;97.30
18753;DHT22;9505;50.882;5.350;2022-07-23T06:44:33;32.60;95.30
18753;DHT22;9505;50.882;5.350;2022-07-23T06:46:58;32.00;95.40
18753;DHT22;9505;50.882;5.350;2022-07-23T06:49:24;31.00;96.20
18753;DHT22;9505;50.882;5.350;2022-07-23T06:51:49;31.00;96.30
18753;DHT22;9505;50.882;5.350;2022-07-23T06:54:15;31.60;95.60
18753;DHT22;9505;50.882;5.350;2022-07-23T06:56:41;31.30;96.20
18753;DHT22;9505;50.882;5.350;2022-07-23T06:59:08;31.00;95.40
18753;DHT22;9505;50.882;5.350;2022-07-23T07:01:33;30.60;96.80
18753;DHT22;9505;50.882;5.350;2022-07-23T07:03:59;29.50;99.40
18753;DHT22;9505;50.882;5.350;2022-07-23T07:06:25;27.80;99.90
18753;DHT22;9505;50.882;5.350;2022-07-23T07:08:50;27.00;99.90
18753;DHT22;9505;50.882;5.350;2022-07-23T07:11:16;27.00;99.90
18753;DHT22;9505;50.882;5.350;2022-07-23T07:13:41;27.40;99.90
18753;DHT22;9505;50.882;5.350;2022-07-23T07:16:07;27.30;99.90
18753;DHT22;9505;50.882;5.350;2022-07-23T07:18:33;27.90;99.90
18753;DHT22;9505;50.882;5.350;2022-07-23T07:20:58;29.30;99.90
18753;DHT22;9505;50.882;5.350;2022-07-23T07:23:24;29.30;99.90
18753;DHT22;9505;50.882;5.350;2022-07-23T07:25:49;29.20;99.90
18753;DHT22;9505;50.882;5.350;2022-07-23T07:28:15;28.90;99.90
18753;DHT22;9505;50.882;5.350;2022-07-23T07:30:41;28.70;99.90
18753;DHT22;9505;50.882;5.350;2022-07-23T07:33:07;28.80;99.90
18753;DHT22;9505;50.882;5.350;2022-07-23T07:35:32;29.70;99.90
18753;DHT22;9505;50.882;5.350;2022-07-23T07:37:59;30.70;99.80
18753;DHT22;9505;50.882;5.350;2022-07-23T07:40:26;31.10;99.30
18753;DHT22;9505;50.882;5.350;2022-07-23T07:42:53;32.40;97.10
18753;DHT22;9505;50.882;5.350;2022-07-23T07:45:23;33.20;94.80
18753;DHT22;9505;50.882;5.350;2022-07-23T07:47:50;33.60;95.30
18753;DHT22;9505;50.882;5.350;2022-07-23T07:50:16;32.90;94.10
18753;DHT22;9505;50.882;5.350;2022-07-23T07:52:42;32.50;94.50
18753;DHT22;9505;50.882;5.350;2022-07-23T07:55:09;32.30;94.70
18753;DHT22;9505;50.882;5.350;2022-07-23T07:57:35;32.70;94.70
18753;DHT22;9505;50.882;5.350;2022-07-23T08:00:02;33.10;93.00
18753;DHT22;9505;50.882;5.350;2022-07-23T08:02:43;32.80;94.90
18753;DHT22;9505;50.882;5.350;2022-07-23T08:05:09;31.90;93.50
18753;DHT22;9505;50.882;5.350;2022-07-23T08:07:35;31.20;94.50
18753;DHT22;9505;50.882;5.350;2022-07-23T08:10:01;29.90;97.00
18753;DHT22;9505;50.882;5.350;2022-07-23T08:12:26;29.20;96.70
18753;DHT22;9505;50.882;5.350;2022-07-23T08:14:52;29.10;97.80
18753;DHT22;9505;50.882;5.350;2022-07-23T08:17:18;27.90;99.90
18753;DHT22;9505;50.882;5.350;2022-07-23T08:19:43;26.60;99.90
18753;DHT22;9505;50.882;5.350;2022-07-23T08:22:09;25.70;99.90
18753;DHT22;9505;50.882;5.350;2022-07-23T08:24:35;25.30;99.90
18753;DHT22;9505;50.882;5.350;2022-07-23T08:27:00;24.80;99.90
18753;DHT22;9505;50.882;5.350;2022-07-23T08:29:26;25.00;99.90
18753;DHT22;9505;50.882;5.350;2022-07-23T08:31:51;25.20;99.90
18753;DHT22;9505;50.882;5.350;2022-07-23T08:34:17;25.90;99.90
18753;DHT22;9505;50.882;5.350;2022-07-23T08:36:43;26.00;99.90
18753;DHT22;9505;50.882;5.350;2022-07-23T08:39:09;26.10;99.90
18753;DHT22;9505;50.882;5.350;2022-07-23T08:41:34;25.90;99.90
18753;DHT22;9505;50.882;5.350;2022-07-23T08:44:00;26.10;99.90
18753;DHT22;9505;50.882;5.350;2022-07-23T08:46:26;26.30;99.90
18753;DHT22;9505;50.882;5.350;2022-07-23T08:48:54;26.30;99.90
18753;DHT22;9505;50.882;5.350;2022-07-23T08:51:20;26.60;99.90
18753;DHT22;9505;50.882;5.350;2022-07-23T08:53:46;26.30;99.90
18753;DHT22;9505;50.882;5.350;2022-07-23T08:56:13;25.80;99.90
18753;DHT22;9505;50.882;5.350;2022-07-23T08:58:39;25.50;99.90
18753;DHT22;9505;50.882;5.350;2022-07-23T09:01:04;25.90;99.90
18753;DHT22;9505;50.882;5.350;2022-07-23T09:03:32;26.30;99.90
18753;DHT22;9505;50.882;5.350;2022-07-23T09:05:59;26.40;99.90
18753;DHT22;9505;50.882;5.350;2022-07-23T09:11:06;27.30;99.90
18753;DHT22;9505;50.882;5.350;2022-07-23T09:13:41;27.50;99.90
18753;DHT22;9505;50.882;5.350;2022-07-23T09:16:13;27.50;99.90
18753;DHT22;9505;50.882;5.350;2022-07-23T09:18:55;27.20;99.90
18753;DHT22;9505;50.882;5.350;2022-07-23T09:21:26;26.70;99.90
18753;DHT22;9505;50.882;5.350;2022-07-23T09:24:07;26.80;99.90
18753;DHT22;9505;50.882;5.350;2022-07-23T09:31:58;26.80;99.90
18753;DHT22;9505;50.882;5.350;2022-07-23T09:34:31;27.00;99.90
18753;DHT22;9505;50.882;5.350;2022-07-23T09:37:15;26.90;99.90
18753;DHT22;9505;50.882;5.350;2022-07-23T09:39:42;27.00;99.90
18753;DHT22;9505;50.882;5.350;2022-07-23T09:42:22;26.70;99.90
18753;DHT22;9505;50.882;5.350;2022-07-23T09:44:55;26.30;99.90
18753;DHT22;9505;50.882;5.350;2022-07-23T09:47:22;26.50;99.90
18753;DHT22;9505;50.882;5.350;2022-07-23T09:50:08;27.00;99.90
18753;DHT22;9505;50.882;5.350;2022-07-23T09:52:45;27.40;99.90
18753;DHT22;9505;50.882;5.350;2022-07-23T09:55:13;27.10;99.90
18753;DHT22;9505;50.882;5.350;2022-07-23T09:57:41;27.30;99.90
18753;DHT22;9505;50.882;5.350;2022-07-23T10:00:08;27.30;99.90
18753;DHT22;9505;50.882;5.350;2022-07-23T10:02:36;27.40;99.90
18753;DHT22;9505;50.882;5.350;2022-07-23T10:05:03;27.50;99.90
18753;DHT22;9505;50.882;5.350;2022-07-23T10:07:31;27.30;99.90
18753;DHT22;9505;50.882;5.350;2022-07-23T10:09:59;27.70;99.90
18753;DHT22;9505;50.882;5.350;2022-07-23T10:12:25;27.80;99.90
18753;DHT22;9505;50.882;5.350;2022-07-23T10:14:52;27.70;99.90
18753;DHT22;9505;50.882;5.350;2022-07-23T10:17:18;27.50;99.90
18753;DHT22;9505;50.882;5.350;2022-07-23T10:19:44;27.00;99.90
18753;DHT22;9505;50.882;5.350;2022-07-23T10:22:13;25.90;99.90
18753;DHT22;9505;50.882;5.350;2022-07-23T10:25:04;25.20;99.90
18753;DHT22;9505;50.882;5.350;2022-07-23T10:30:45;25.80;99.90
18753;DHT22;9505;50.882;5.350;2022-07-23T10:36:23;26.30;99.90
18753;DHT22;9505;50.882;5.350;2022-07-23T10:39:18;26.20;99.90
18753;DHT22;9505;50.882;5.350;2022-07-23T10:41:44;26.20;99.90
18753;DHT22;9505;50.882;5.350;2022-07-23T10:44:19;26.30;99.90
18753;DHT22;9505;50.882;5.350;2022-07-23T10:47:03;27.00;99.90
18753;DHT22;9505;50.882;5.350;2022-07-23T10:49:48;27.40;99.90
18753;DHT22;9505;50.882;5.350;2022-07-23T10:54:50;27.80;99.90
18753;DHT22;9505;50.882;5.350;2022-07-23T10:57:24;27.80;99.90
18753;DHT22;9505;50.882;5.350;2022-07-23T11:02:41;28.00;99.90
18753;DHT22;9505;50.882;5.350;2022-07-23T11:05:15;27.80;99.90
18753;DHT22;9505;50.882;5.350;2022-07-23T11:10:36;28.30;99.90
18753;DHT22;9505;50.882;5.350;2022-07-23T11:32:04;27.60;99.90
18753;DHT22;9505;50.882;5.350;2022-07-23T11:37:09;28.10;99.90
18753;DHT22;9505;50.882;5.350;2022-07-23T11:39:35;28.40;99.10
18753;DHT22;9505;50.882;5.350;2022-07-23T11:42:02;28.50;99.40
18753;DHT22;9505;50.882;5.350;2022-07-23T11:47:07;29.10;97.30
18753;DHT22;9505;50.882;5.350;2022-07-23T11:49:34;28.90;97.10
18753;DHT22;9505;50.882;5.350;2022-07-23T11:54:50;28.30;98.40
18753;DHT22;9505;50.882;5.350;2022-07-23T11:57:17;28.50;98.20
18753;DHT22;9505;50.882;5.350;2022-07-23T11:59:43;28.70;97.30
18753;DHT22;9505;50.882;5.350;2022-07-23T12:02:11;29.00;98.00
18753;DHT22;9505;50.882;5.350;2022-07-23T12:04:48;29.20;96.40
18753;DHT22;9505;50.882;5.350;2022-07-23T12:07:34;29.20;96.50
18753;DHT22;9505;50.882;5.350;2022-07-23T12:10:03;29.20;95.80
18753;DHT22;9505;50.882;5.350;2022-07-23T12:12:46;29.30;96.70
18753;DHT22;9505;50.882;5.350;2022-07-23T12:15:15;29.30;96.90
18753;DHT22;9505;50.882;5.350;2022-07-23T12:17:44;29.00;97.10
18753;DHT22;9505;50.882;5.350;2022-07-23T12:20:13;29.10;98.10
18753;DHT22;9505;50.882;5.350;2022-07-23T12:22:42;29.10;95.90
18753;DHT22;9505;50.882;5.350;2022-07-23T12:25:12;29.30;96.00
18753;DHT22;9505;50.882;5.350;2022-07-23T12:27:38;29.60;97.00
18753;DHT22;9505;50.882;5.350;2022-07-23T12:32:44;28.90;95.50
18753;DHT22;9505;50.882;5.350;2022-07-23T12:35:10;29.10;95.50
18753;DHT22;9505;50.882;5.350;2022-07-23T12:37:38;29.10;94.80
18753;DHT22;9505;50.882;5.350;2022-07-23T12:40:28;29.40;96.40
18753;DHT22;9505;50.882;5.350;2022-07-23T12:42:59;29.80;95.80
18753;DHT22;9505;50.882;5.350;2022-07-23T12:45:27;29.70;94.60
18753;DHT22;9505;50.882;5.350;2022-07-23T12:50:54;29.40;94.10
18753;DHT22;9505;50.882;5.350;2022-07-23T12:55:49;28.30;93.80
18753;DHT22;9505;50.882;5.350;2022-07-23T12:58:19;28.50;94.90
18753;DHT22;9505;50.882;5.350;2022-07-23T13:00:56;28.50;94.20
18753;DHT22;9505;50.882;5.350;2022-07-23T13:03:35;28.70;93.90
18753;DHT22;9505;50.882;5.350;2022-07-23T13:06:03;29.10;93.50
18753;DHT22;9505;50.882;5.350;2022-07-23T13:08:31;29.20;93.80
18753;DHT22;9505;50.882;5.350;2022-07-23T13:10:58;29.70;92.60
18753;DHT22;9505;50.882;5.350;2022-07-23T13:13:26;29.70;92.00
18753;DHT22;9505;50.882;5.350;2022-07-23T13:15:52;29.20;92.80
18753;DHT22;9505;50.882;5.350;2022-07-23T13:18:19;28.80;93.00
18753;DHT22;9505;50.882;5.350;2022-07-23T13:20:47;29.10;92.90
18753;DHT22;9505;50.882;5.350;2022-07-23T13:23:13;28.80;93.30
18753;DHT22;9505;50.882;5.350;2022-07-23T13:25:39;29.30;93.00
18753;DHT22;9505;50.882;5.350;2022-07-23T13:28:04;29.60;91.40
18753;DHT22;9505;50.882;5.350;2022-07-23T13:30:30;29.50;92.30
18753;DHT22;9505;50.882;5.350;2022-07-23T13:32:56;29.70;90.80
18753;DHT22;9505;50.882;5.350;2022-07-23T13:35:22;29.50;91.70
18753;DHT22;9505;50.882;5.350;2022-07-23T13:37:47;29.70;90.70
18753;DHT22;9505;50.882;5.350;2022-07-23T13:40:14;29.60;91.10
18753;DHT22;9505;50.882;5.350;2022-07-23T13:42:39;30.00;90.40
18753;DHT22;9505;50.882;5.350;2022-07-23T13:45:06;30.70;90.80
18753;DHT22;9505;50.882;5.350;2022-07-23T13:47:31;31.20;90.50
18753;DHT22;9505;50.882;5.350;2022-07-23T13:49:57;31.60;87.70
18753;DHT22;9505;50.882;5.350;2022-07-23T13:52:23;31.50;86.40
18753;DHT22;9505;50.882;5.350;2022-07-23T13:54:49;31.60;87.30
18753;DHT22;9505;50.882;5.350;2022-07-23T13:57:15;31.50;86.50
18753;DHT22;9505;50.882;5.350;2022-07-23T13:59:41;32.10;85.30
18753;DHT22;9505;50.882;5.350;2022-07-23T14:02:07;31.70;85.50
18753;DHT22;9505;50.882;5.350;2022-07-23T14:04:33;31.70;85.10
18753;DHT22;9505;50.882;5.350;2022-07-23T14:06:59;31.40;85.20
18753;DHT22;9505;50.882;5.350;2022-07-23T14:09:25;32.00;83.60
18753;DHT22;9505;50.882;5.350;2022-07-23T14:11:50;32.50;81.50
18753;DHT22;9505;50.882;5.350;2022-07-23T14:14:17;33.10;80.30
18753;DHT22;9505;50.882;5.350;2022-07-23T14:16:43;33.70;78.50
18753;DHT22;9505;50.882;5.350;2022-07-23T14:19:10;33.70;78.40
18753;DHT22;9505;50.882;5.350;2022-07-23T14:21:36;33.90;78.40
18753;DHT22;9505;50.882;5.350;2022-07-23T14:24:02;33.60;78.60
18753;DHT22;9505;50.882;5.350;2022-07-23T14:26:27;32.90;77.80
18753;DHT22;9505;50.882;5.350;2022-07-23T14:28:53;32.80;78.40
18753;DHT22;9505;50.882;5.350;2022-07-23T14:31:19;32.90;79.70
18753;DHT22;9505;50.882;5.350;2022-07-23T14:33:44;33.20;77.70
18753;DHT22;9505;50.882;5.350;2022-07-23T14:36:10;33.30;79.40
18753;DHT22;9505;50.882;5.350;2022-07-23T14:38:36;33.20;77.90
18753;DHT22;9505;50.882;5.350;2022-07-23T14:41:01;32.60;79.10
18753;DHT22;9505;50.882;5.350;2022-07-23T14:43:27;32.80;82.00
18753;DHT22;9505;50.882;5.350;2022-07-23T14:45:53;33.20;79.20
18753;DHT22;9505;50.882;5.350;2022-07-23T14:48:18;33.30;77.90
18753;DHT22;9505;50.882;5.350;2022-07-23T14:50:44;33.60;78.50
18753;DHT22;9505;50.882;5.350;2022-07-23T14:53:09;32.70;78.70
18753;DHT22;9505;50.882;5.350;2022-07-23T14:55:35;32.10;80.90
18753;DHT22;9505;50.882;5.350;2022-07-23T14:58:01;32.40;80.10
18753;DHT22;9505;50.882;5.350;2022-07-23T15:00:27;32.10;79.60
18753;DHT22;9505;50.882;5.350;2022-07-23T15:02:53;32.30;79.20
18753;DHT22;9505;50.882;5.350;2022-07-23T15:05:19;32.80;81.40
18753;DHT22;9505;50.882;5.350;2022-07-23T15:07:45;32.10;79.40
18753;DHT22;9505;50.882;5.350;2022-07-23T15:10:11;32.00;79.60
18753;DHT22;9505;50.882;5.350;2022-07-23T15:12:37;31.30;80.00
18753;DHT22;9505;50.882;5.350;2022-07-23T15:15:03;30.90;82.50
18753;DHT22;9505;50.882;5.350;2022-07-23T15:17:29;30.90;81.10
18753;DHT22;9505;50.882;5.350;2022-07-23T15:19:55;31.10;80.90
18753;DHT22;9505;50.882;5.350;2022-07-23T15:22:21;31.20;81.60
18753;DHT22;9505;50.882;5.350;2022-07-23T15:24:47;30.90;80.90
18753;DHT22;9505;50.882;5.350;2022-07-23T15:27:12;31.00;82.60
18753;DHT22;9505;50.882;5.350;2022-07-23T15:29:39;30.90;82.50
18753;DHT22;9505;50.882;5.350;2022-07-23T15:32:05;31.50;81.00
18753;DHT22;9505;50.882;5.350;2022-07-23T15:34:30;32.00;79.20
18753;DHT22;9505;50.882;5.350;2022-07-23T15:37:00;31.90;79.50
18753;DHT22;9505;50.882;5.350;2022-07-23T15:39:26;31.60;81.00
18753;DHT22;9505;50.882;5.350;2022-07-23T15:41:51;31.60;79.60
18753;DHT22;9505;50.882;5.350;2022-07-23T15:44:17;31.00;80.00
18753;DHT22;9505;50.882;5.350;2022-07-23T15:46:43;30.30;82.60
18753;DHT22;9505;50.882;5.350;2022-07-23T15:49:08;30.40;82.90
18753;DHT22;9505;50.882;5.350;2022-07-23T15:51:34;30.60;83.40
18753;DHT22;9505;50.882;5.350;2022-07-23T15:53:59;31.10;82.60
18753;DHT22;9505;50.882;5.350;2022-07-23T15:56:25;31.50;81.70
18753;DHT22;9505;50.882;5.350;2022-07-23T15:58:51;31.20;81.10
18753;DHT22;9505;50.882;5.350;2022-07-23T16:01:17;31.20;80.30
18753;DHT22;9505;50.882;5.350;2022-07-23T16:03:42;31.40;80.50
18753;DHT22;9505;50.882;5.350;2022-07-23T16:06:08;31.80;81.50
18753;DHT22;9505;50.882;5.350;2022-07-23T16:08:34;31.90;81.70
18753;DHT22;9505;50.882;5.350;2022-07-23T16:11:00;32.20;80.20
18753;DHT22;9505;50.882;5.350;2022-07-23T16:13:26;32.70;78.80
18753;DHT22;9505;50.882;5.350;2022-07-23T16:15:52;32.40;79.30
18753;DHT22;9505;50.882;5.350;2022-07-23T16:18:20;32.10;80.20
18753;DHT22;9505;50.882;5.350;2022-07-23T16:20:48;31.60;80.10
18753;DHT22;9505;50.882;5.350;2022-07-23T16:23:15;31.50;81.10
18753;DHT22;9505;50.882;5.350;2022-07-23T16:25:41;31.30;81.40
18753;DHT22;9505;50.882;5.350;2022-07-23T16:28:07;31.20;80.80
18753;DHT22;9505;50.882;5.350;2022-07-23T16:30:32;31.20;80.70
18753;DHT22;9505;50.882;5.350;2022-07-23T16:32:59;31.20;81.10
18753;DHT22;9505;50.882;5.350;2022-07-23T16:35:25;31.00;80.20
18753;DHT22;9505;50.882;5.350;2022-07-23T16:37:51;31.10;80.80
18753;DHT22;9505;50.882;5.350;2022-07-23T16:40:17;31.40;81.10